This is the latest recevied weather packets stored in our database for station/object F4AMY-13. If no packets are shown the sender has not sent any weather packets the latest 10 day(s).
| Time | Temp. | Humidity | Pressure | Rain* | Wind** | Luminosity | Snow |
|---|---|---|---|---|---|---|---|
| 1777129026 | 26.67° C | 36% | 1013.4 hPa | 0 mm | 188.65 m/s, ° | 422 W/m² | - |
| 1777128726 | 26.67° C | 38% | 1013.4 hPa | 0 mm | 189.99 m/s, ° | 425 W/m² | - |
| 1777128426 | 26.11° C | 41% | 1013.4 hPa | 0 mm | 191.33 m/s, ° | 428 W/m² | - |
| 1777128126 | 26.11° C | 39% | 1013.7 hPa | 0 mm | 191.33 m/s, ° | 428 W/m² | - |
| 1777127826 | 26.11° C | 39% | 1013.4 hPa | 0 mm | 192.67 m/s, ° | 431 W/m² | - |
| 1777127526 | 26.11° C | 46% | 1013.7 hPa | 0 mm | 192.67 m/s, ° | 431 W/m² | - |
| 1777127226 | 26.67° C | 38% | 1013.5 hPa | 0 mm | 196.25 m/s, ° | 439 W/m² | - |
| 1777126926 | 26.67° C | 45% | 1013.6 hPa | 0 mm | 198.49 m/s, ° | 444 W/m² | - |
| 1777126625 | 26.67° C | 44% | 1013.8 hPa | 0 mm | 199.38 m/s, ° | 446 W/m² | - |
| 1777126325 | 26.67° C | 46% | 1013.7 hPa | 0 mm | 200.27 m/s, ° | 448 W/m² | - |
| 1777126025 | 26.67° C | 41% | 1013.7 hPa | 0 mm | 202.96 m/s, ° | 454 W/m² | - |
| 1777125725 | 26.67° C | 43% | 1013.9 hPa | 0 mm | 203.85 m/s, ° | 456 W/m² | - |
| 1777125425 | 26.67° C | 44% | 1014.2 hPa | 0 mm | 206.53 m/s, ° | 462 W/m² | - |
| 1777125125 | 26.11° C | 44% | 1013.9 hPa | 0 mm | 206.53 m/s, ° | 462 W/m² | - |
| 1777124825 | 26.11° C | 43% | 1013.9 hPa | 0 mm | 207.87 m/s, ° | 465 W/m² | - |
| 1777124525 | 25.56° C | 42% | 1014.2 hPa | 0 mm | 209.21 m/s, ° | 468 W/m² | - |
| 1777124225 | 25.56° C | 47% | 1014.1 hPa | 0 mm | 209.66 m/s, ° | 469 W/m² | - |
| 1777123925 | 25° C | 46% | 1014 hPa | 0 mm | 209.66 m/s, ° | 469 W/m² | - |
| 1777123625 | 24.44° C | 46% | 1014.4 hPa | 0 mm | 210.11 m/s, ° | 470 W/m² | - |
| 1777123325 | 24.44° C | 49% | 1014.4 hPa | 0 mm | 209.21 m/s, ° | 468 W/m² | - |
| 1777123025 | 23.89° C | 49% | 1014.4 hPa | 0 mm | 209.21 m/s, ° | 468 W/m² | - |
| 1777122725 | 23.89° C | 53% | 1014.4 hPa | 0 mm | 210.11 m/s, ° | 470 W/m² | - |
| 1777122425 | 23.89° C | 53% | 1014.4 hPa | 0 mm | 208.32 m/s, ° | 466 W/m² | - |
| 1777122124 | 23.89° C | 52% | 1014.4 hPa | 0 mm | 206.98 m/s, ° | 463 W/m² | - |
| 1777121824 | 23.89° C | 57% | 1014.6 hPa | 0 mm | 206.98 m/s, ° | 463 W/m² | - |
* Rain latest hour (hover to see other rain measurements)
** Current wind speed in m/s (hover to see current wind gust speed)